sensor_id;sensor_type;location;lat;lon;timestamp;pressure;altitude;pressure_sealevel;temperature;humidity
20622;BME280;10470;42.670;23.354;2023-04-05T00:00:18;94312.56;;;0.77;100.00
20622;BME280;10470;42.670;23.354;2023-04-05T00:02:44;94297.22;;;0.77;100.00
20622;BME280;10470;42.670;23.354;2023-04-05T00:05:10;94288.91;;;0.68;100.00
20622;BME280;10470;42.670;23.354;2023-04-05T00:07:36;94295.56;;;0.94;100.00
20622;BME280;10470;42.670;23.354;2023-04-05T00:10:03;94294.88;;;0.86;100.00
20622;BME280;10470;42.670;23.354;2023-04-05T00:12:28;94288.75;;;0.82;100.00
20622;BME280;10470;42.670;23.354;2023-04-05T00:14:54;94292.72;;;0.71;100.00
20622;BME280;10470;42.670;23.354;2023-04-05T00:17:19;94294.19;;;0.75;100.00
20622;BME280;10470;42.670;23.354;2023-04-05T00:19:45;94289.50;;;0.86;100.00
20622;BME280;10470;42.670;23.354;2023-04-05T00:22:21;94292.19;;;0.86;100.00
20622;BME280;10470;42.670;23.354;2023-04-05T00:24:50;94285.84;;;0.66;100.00
20622;BME280;10470;42.670;23.354;2023-04-05T00:27:15;94285.47;;;0.64;100.00
20622;BME280;10470;42.670;23.354;2023-04-05T00:29:40;94287.25;;;0.81;100.00
20622;BME280;10470;42.670;23.354;2023-04-05T00:32:06;94285.28;;;0.89;100.00
20622;BME280;10470;42.670;23.354;2023-04-05T00:34:31;94294.50;;;0.84;100.00
20622;BME280;10470;42.670;23.354;2023-04-05T00:36:58;94301.88;;;0.73;100.00
20622;BME280;10470;42.670;23.354;2023-04-05T00:39:23;94295.78;;;0.69;100.00
20622;BME280;10470;42.670;23.354;2023-04-05T00:41:49;94300.34;;;0.72;100.00
20622;BME280;10470;42.670;23.354;2023-04-05T00:44:14;94300.28;;;0.79;100.00
20622;BME280;10470;42.670;23.354;2023-04-05T00:46:40;94304.13;;;0.78;100.00
20622;BME280;10470;42.670;23.354;2023-04-05T00:49:06;94305.56;;;0.90;100.00
20622;BME280;10470;42.670;23.354;2023-04-05T00:51:32;94305.88;;;0.96;100.00
20622;BME280;10470;42.670;23.354;2023-04-05T00:53:59;94303.28;;;0.89;100.00
20622;BME280;10470;42.670;23.354;2023-04-05T00:56:25;94302.38;;;1.02;100.00
20622;BME280;10470;42.670;23.354;2023-04-05T00:58:50;94305.56;;;0.90;100.00
20622;BME280;10470;42.670;23.354;2023-04-05T01:01:18;94312.03;;;0.96;100.00
20622;BME280;10470;42.670;23.354;2023-04-05T01:03:48;94309.00;;;0.91;100.00
20622;BME280;10470;42.670;23.354;2023-04-05T01:09:54;94304.06;;;0.85;100.00
20622;BME280;10470;42.670;23.354;2023-04-05T01:12:23;94318.56;;;0.92;100.00
20622;BME280;10470;42.670;23.354;2023-04-05T01:14:51;94278.94;;;0.69;100.00
20622;BME280;10470;42.670;23.354;2023-04-05T01:17:19;94313.31;;;0.81;100.00
20622;BME280;10470;42.670;23.354;2023-04-05T01:19:59;94312.19;;;0.78;100.00
20622;BME280;10470;42.670;23.354;2023-04-05T01:30:40;94311.44;;;0.74;100.00
20622;BME280;10470;42.670;23.354;2023-04-05T01:36:14;94322.16;;;0.74;100.00
20622;BME280;10470;42.670;23.354;2023-04-05T01:38:45;94308.31;;;0.79;100.00
20622;BME280;10470;42.670;23.354;2023-04-05T01:41:13;94306.41;;;0.80;100.00
20622;BME280;10470;42.670;23.354;2023-04-05T01:43:39;94312.94;;;0.79;100.00
20622;BME280;10470;42.670;23.354;2023-04-05T01:46:04;94318.28;;;0.79;100.00
20622;BME280;10470;42.670;23.354;2023-04-05T01:48:30;94317.47;;;0.85;100.00
20622;BME280;10470;42.670;23.354;2023-04-05T01:50:55;94324.59;;;1.03;100.00
20622;BME280;10470;42.670;23.354;2023-04-05T01:53:21;94315.63;;;0.75;100.00
20622;BME280;10470;42.670;23.354;2023-04-05T01:55:46;94318.97;;;0.90;100.00
20622;BME280;10470;42.670;23.354;2023-04-05T01:58:12;94314.06;;;0.81;100.00
20622;BME280;10470;42.670;23.354;2023-04-05T02:00:38;94329.41;;;0.77;100.00
20622;BME280;10470;42.670;23.354;2023-04-05T02:03:04;94319.81;;;0.80;100.00
20622;BME280;10470;42.670;23.354;2023-04-05T02:05:29;94323.25;;;0.80;100.00
20622;BME280;10470;42.670;23.354;2023-04-05T02:07:55;94325.03;;;0.98;100.00
20622;BME280;10470;42.670;23.354;2023-04-05T02:10:21;94336.19;;;0.93;100.00
20622;BME280;10470;42.670;23.354;2023-04-05T02:12:46;94326.56;;;0.95;100.00
20622;BME280;10470;42.670;23.354;2023-04-05T02:15:12;94323.19;;;0.91;100.00
20622;BME280;10470;42.670;23.354;2023-04-05T02:17:38;94333.56;;;0.85;100.00
20622;BME280;10470;42.670;23.354;2023-04-05T02:20:07;94331.66;;;0.86;100.00
20622;BME280;10470;42.670;23.354;2023-04-05T02:22:35;94330.44;;;0.94;100.00
20622;BME280;10470;42.670;23.354;2023-04-05T02:25:02;94324.78;;;0.81;100.00
20622;BME280;10470;42.670;23.354;2023-04-05T02:27:28;94333.97;;;0.80;100.00
20622;BME280;10470;42.670;23.354;2023-04-05T02:29:53;94325.88;;;0.87;100.00
20622;BME280;10470;42.670;23.354;2023-04-05T02:32:21;94323.94;;;0.88;100.00
20622;BME280;10470;42.670;23.354;2023-04-05T02:34:47;94319.78;;;0.83;100.00
20622;BME280;10470;42.670;23.354;2023-04-05T02:37:12;94322.41;;;0.91;100.00
20622;BME280;10470;42.670;23.354;2023-04-05T02:39:37;94330.38;;;0.98;100.00
20622;BME280;10470;42.670;23.354;2023-04-05T02:42:03;94326.56;;;0.99;100.00
20622;BME280;10470;42.670;23.354;2023-04-05T02:44:28;94320.41;;;0.98;100.00
20622;BME280;10470;42.670;23.354;2023-04-05T02:46:54;94319.59;;;1.05;100.00
20622;BME280;10470;42.670;23.354;2023-04-05T02:49:20;94326.13;;;1.04;100.00
20622;BME280;10470;42.670;23.354;2023-04-05T02:51:45;94319.34;;;0.92;100.00
20622;BME280;10470;42.670;23.354;2023-04-05T02:54:10;94327.00;;;0.94;100.00
20622;BME280;10470;42.670;23.354;2023-04-05T02:56:36;94320.06;;;0.96;100.00
20622;BME280;10470;42.670;23.354;2023-04-05T02:59:01;94319.28;;;0.96;100.00
20622;BME280;10470;42.670;23.354;2023-04-05T03:01:28;94313.50;;;1.04;100.00
20622;BME280;10470;42.670;23.354;2023-04-05T03:03:54;94329.16;;;1.06;100.00
20622;BME280;10470;42.670;23.354;2023-04-05T03:06:20;94325.81;;;0.95;100.00
20622;BME280;10470;42.670;23.354;2023-04-05T03:08:46;94318.91;;;0.97;100.00
20622;BME280;10470;42.670;23.354;2023-04-05T03:11:13;94321.22;;;0.95;100.00
20622;BME280;10470;42.670;23.354;2023-04-05T03:13:39;94324.66;;;0.99;100.00
20622;BME280;10470;42.670;23.354;2023-04-05T03:16:05;94316.94;;;1.05;100.00
20622;BME280;10470;42.670;23.354;2023-04-05T03:18:31;94317.72;;;1.02;100.00
20622;BME280;10470;42.670;23.354;2023-04-05T03:20:57;94333.13;;;0.94;100.00
20622;BME280;10470;42.670;23.354;2023-04-05T03:23:27;94331.56;;;0.93;100.00
20622;BME280;10470;42.670;23.354;2023-04-05T03:26:00;94323.66;;;0.75;100.00
20622;BME280;10470;42.670;23.354;2023-04-05T03:28:30;94323.19;;;0.91;100.00
20622;BME280;10470;42.670;23.354;2023-04-05T03:30:59;94314.66;;;1.00;100.00
20622;BME280;10470;42.670;23.354;2023-04-05T03:33:24;94320.09;;;0.93;100.00
20622;BME280;10470;42.670;23.354;2023-04-05T03:35:50;94317.03;;;0.91;100.00
20622;BME280;10470;42.670;23.354;2023-04-05T03:38:16;94321.53;;;1.01;100.00
20622;BME280;10470;42.670;23.354;2023-04-05T03:40:41;94321.22;;;0.99;100.00
20622;BME280;10470;42.670;23.354;2023-04-05T03:43:07;94329.63;;;0.97;100.00
20622;BME280;10470;42.670;23.354;2023-04-05T03:45:32;94331.97;;;0.92;100.00
20622;BME280;10470;42.670;23.354;2023-04-05T03:47:58;94330.38;;;0.98;100.00
20622;BME280;10470;42.670;23.354;2023-04-05T03:50:24;94328.53;;;0.91;100.00
20622;BME280;10470;42.670;23.354;2023-04-05T03:52:51;94341.97;;;0.87;100.00
20622;BME280;10470;42.670;23.354;2023-04-05T03:55:16;94332.47;;;0.79;100.00
20622;BME280;10470;42.670;23.354;2023-04-05T03:57:42;94340.03;;;0.92;100.00
20622;BME280;10470;42.670;23.354;2023-04-05T04:00:08;94338.56;;;0.83;100.00
20622;BME280;10470;42.670;23.354;2023-04-05T04:02:42;94345.03;;;0.90;100.00
20622;BME280;10470;42.670;23.354;2023-04-05T04:05:09;94341.97;;;0.91;100.00
20622;BME280;10470;42.670;23.354;2023-04-05T04:07:35;94341.16;;;0.91;100.00
20622;BME280;10470;42.670;23.354;2023-04-05T04:10:00;94344.63;;;0.91;100.00
20622;BME280;10470;42.670;23.354;2023-04-05T04:12:26;94349.31;;;0.80;100.00
20622;BME280;10470;42.670;23.354;2023-04-05T04:14:51;94314.84;;;0.78;100.00
20622;BME280;10470;42.670;23.354;2023-04-05T04:17:26;94340.56;;;0.72;100.00
20622;BME280;10470;42.670;23.354;2023-04-05T04:19:51;94335.84;;;0.87;100.00
20622;BME280;10470;42.670;23.354;2023-04-05T04:22:16;94333.97;;;0.80;100.00
20622;BME280;10470;42.670;23.354;2023-04-05T04:24:45;94338.50;;;0.91;100.00
20622;BME280;10470;42.670;23.354;2023-04-05T04:27:16;94345.16;;;0.72;100.00
20622;BME280;10470;42.670;23.354;2023-04-05T04:29:42;94335.50;;;0.81;100.00
20622;BME280;10470;42.670;23.354;2023-04-05T04:32:15;94321.00;;;0.75;100.00
20622;BME280;10470;42.670;23.354;2023-04-05T04:34:41;94338.91;;;0.89;100.00
20622;BME280;10470;42.670;23.354;2023-04-05T04:37:13;94337.63;;;1.01;100.00
20622;BME280;10470;42.670;23.354;2023-04-05T04:39:43;94337.28;;;0.99;100.00
20622;BME280;10470;42.670;23.354;2023-04-05T04:42:10;94345.47;;;0.81;100.00
20622;BME280;10470;42.670;23.354;2023-04-05T04:44:36;94341.16;;;0.94;100.00
20622;BME280;10470;42.670;23.354;2023-04-05T04:47:01;94338.16;;;0.85;100.00
20622;BME280;10470;42.670;23.354;2023-04-05T04:49:27;94337.25;;;1.02;100.00
20622;BME280;10470;42.670;23.354;2023-04-05T04:51:52;94356.34;;;1.12;100.00
20622;BME280;10470;42.670;23.354;2023-04-05T04:54:17;94346.81;;;1.03;100.00
20622;BME280;10470;42.670;23.354;2023-04-05T04:56:45;94346.00;;;1.10;100.00
20622;BME280;10470;42.670;23.354;2023-04-05T04:59:10;94334.19;;;1.00;100.00
20622;BME280;10470;42.670;23.354;2023-04-05T05:01:36;94357.28;;;1.32;100.00
20622;BME280;10470;42.670;23.354;2023-04-05T05:04:02;94364.03;;;1.09;100.00
20622;BME280;10470;42.670;23.354;2023-04-05T05:06:28;94345.25;;;1.06;100.00
20622;BME280;10470;42.670;23.354;2023-04-05T05:08:54;94348.91;;;1.26;100.00
20622;BME280;10470;42.670;23.354;2023-04-05T05:11:20;94358.25;;;1.11;100.00
20622;BME280;10470;42.670;23.354;2023-04-05T05:13:46;94368.81;;;1.33;100.00
20622;BME280;10470;42.670;23.354;2023-04-05T05:16:11;94357.38;;;1.21;100.00
20622;BME280;10470;42.670;23.354;2023-04-05T05:18:37;94370.00;;;1.24;100.00
20622;BME280;10470;42.670;23.354;2023-04-05T05:21:04;94368.63;;;1.09;100.00
20622;BME280;10470;42.670;23.354;2023-04-05T05:23:30;94343.09;;;0.94;100.00
20622;BME280;10470;42.670;23.354;2023-04-05T05:25:58;94366.28;;;1.11;100.00
20622;BME280;10470;42.670;23.354;2023-04-05T05:28:26;94374.16;;;1.33;100.00
20622;BME280;10470;42.670;23.354;2023-04-05T05:30:51;94376.63;;;1.13;100.00
20622;BME280;10470;42.670;23.354;2023-04-05T05:33:17;94372.88;;;1.03;100.00
20622;BME280;10470;42.670;23.354;2023-04-05T05:35:43;94378.09;;;1.21;100.00
20622;BME280;10470;42.670;23.354;2023-04-05T05:38:08;94371.28;;;1.13;100.00
20622;BME280;10470;42.670;23.354;2023-04-05T05:40:34;94380.81;;;1.17;100.00
20622;BME280;10470;42.670;23.354;2023-04-05T05:42:59;94377.50;;;1.44;100.00
20622;BME280;10470;42.670;23.354;2023-04-05T05:45:24;94377.34;;;1.17;100.00
20622;BME280;10470;42.670;23.354;2023-04-05T05:47:51;94372.19;;;1.37;100.00
20622;BME280;10470;42.670;23.354;2023-04-05T05:50:16;94367.69;;;1.30;100.00
20622;BME280;10470;42.670;23.354;2023-04-05T05:52:45;94373.75;;;1.38;100.00
20622;BME280;10470;42.670;23.354;2023-04-05T05:55:10;94374.75;;;1.51;100.00
20622;BME280;10470;42.670;23.354;2023-04-05T05:57:35;94364.53;;;1.39;100.00
20622;BME280;10470;42.670;23.354;2023-04-05T06:00:03;94372.72;;;1.62;100.00
20622;BME280;10470;42.670;23.354;2023-04-05T06:02:33;94368.88;;;1.63;100.00
20622;BME280;10470;42.670;23.354;2023-04-05T06:04:58;94374.97;;;1.67;100.00
20622;BME280;10470;42.670;23.354;2023-04-05T06:07:24;94377.13;;;1.45;100.00
20622;BME280;10470;42.670;23.354;2023-04-05T06:09:49;94382.16;;;1.78;100.00
20622;BME280;10470;42.670;23.354;2023-04-05T06:12:15;94375.72;;;1.71;100.00
20622;BME280;10470;42.670;23.354;2023-04-05T06:14:40;94381.97;;;1.92;100.00
20622;BME280;10470;42.670;23.354;2023-04-05T06:17:06;94383.22;;;1.84;100.00
20622;BME280;10470;42.670;23.354;2023-04-05T06:19:31;94392.44;;;2.17;100.00
20622;BME280;10470;42.670;23.354;2023-04-05T06:21:57;94390.50;;;2.21;100.00
20622;BME280;10470;42.670;23.354;2023-04-05T06:24:25;94393.94;;;2.22;100.00
20622;BME280;10470;42.670;23.354;2023-04-05T06:26:50;94391.50;;;2.00;100.00
20622;BME280;10470;42.670;23.354;2023-04-05T06:29:16;94396.75;;;2.11;100.00
20622;BME280;10470;42.670;23.354;2023-04-05T06:31:41;94404.44;;;2.09;100.00
20622;BME280;10470;42.670;23.354;2023-04-05T06:34:07;94398.91;;;2.23;100.00
20622;BME280;10470;42.670;23.354;2023-04-05T06:36:33;94405.63;;;2.08;100.00
20622;BME280;10470;42.670;23.354;2023-04-05T06:38:59;94407.50;;;2.11;100.00
20622;BME280;10470;42.670;23.354;2023-04-05T06:41:24;94416.94;;;2.23;100.00
20622;BME280;10470;42.670;23.354;2023-04-05T06:43:51;94419.59;;;2.26;100.00
20622;BME280;10470;42.670;23.354;2023-04-05T06:46:17;94417.50;;;2.41;100.00
20622;BME280;10470;42.670;23.354;2023-04-05T06:48:42;94418.59;;;2.44;100.00
20622;BME280;10470;42.670;23.354;2023-04-05T06:51:08;94426.88;;;2.60;100.00
20622;BME280;10470;42.670;23.354;2023-04-05T06:53:33;94427.94;;;2.66;100.00
20622;BME280;10470;42.670;23.354;2023-04-05T06:55:59;94429.31;;;2.78;100.00
20622;BME280;10470;42.670;23.354;2023-04-05T06:58:25;94427.84;;;2.73;100.00
20622;BME280;10470;42.670;23.354;2023-04-05T07:00:52;94442.56;;;2.92;100.00
20622;BME280;10470;42.670;23.354;2023-04-05T07:03:17;94436.66;;;2.43;100.00
20622;BME280;10470;42.670;23.354;2023-04-05T07:05:53;94450.09;;;2.47;100.00
20622;BME280;10470;42.670;23.354;2023-04-05T07:08:21;94454.91;;;2.59;100.00
20622;BME280;10470;42.670;23.354;2023-04-05T07:10:48;94464.06;;;2.65;100.00
20622;BME280;10470;42.670;23.354;2023-04-05T07:13:14;94453.41;;;2.58;100.00
20622;BME280;10470;42.670;23.354;2023-04-05T07:15:40;94460.22;;;2.66;100.00
20622;BME280;10470;42.670;23.354;2023-04-05T07:18:05;94462.50;;;2.68;100.00
20622;BME280;10470;42.670;23.354;2023-04-05T07:20:30;94464.69;;;2.76;100.00
20622;BME280;10470;42.670;23.354;2023-04-05T07:22:56;94463.03;;;2.55;100.00
20622;BME280;10470;42.670;23.354;2023-04-05T07:25:23;94465.66;;;2.59;100.00
20622;BME280;10470;42.670;23.354;2023-04-05T07:27:48;94460.59;;;2.95;100.00
20622;BME280;10470;42.670;23.354;2023-04-05T07:30:14;94457.00;;;2.75;100.00
20622;BME280;10470;42.670;23.354;2023-04-05T07:32:39;94461.41;;;2.61;100.00
20622;BME280;10470;42.670;23.354;2023-04-05T07:35:05;94467.44;;;2.73;100.00
20622;BME280;10470;42.670;23.354;2023-04-05T07:37:31;94463.41;;;2.54;100.00
20622;BME280;10470;42.670;23.354;2023-04-05T07:39:57;94470.88;;;2.73;100.00
20622;BME280;10470;42.670;23.354;2023-04-05T07:42:25;94471.91;;;2.83;100.00
20622;BME280;10470;42.670;23.354;2023-04-05T07:44:52;94475.00;;;2.81;100.00
20622;BME280;10470;42.670;23.354;2023-04-05T07:47:17;94479.38;;;2.99;100.00
20622;BME280;10470;42.670;23.354;2023-04-05T07:49:43;94481.81;;;2.90;100.00
20622;BME280;10470;42.670;23.354;2023-04-05T07:52:08;94487.59;;;2.88;100.00
20622;BME280;10470;42.670;23.354;2023-04-05T07:54:34;94491.94;;;2.78;100.00
20622;BME280;10470;42.670;23.354;2023-04-05T07:57:00;94485.31;;;2.87;100.00
20622;BME280;10470;42.670;23.354;2023-04-05T07:59:26;94487.63;;;2.84;100.00
20622;BME280;10470;42.670;23.354;2023-04-05T08:01:52;94495.75;;;2.81;100.00
20622;BME280;10470;42.670;23.354;2023-04-05T08:04:18;94499.06;;;2.92;100.00
20622;BME280;10470;42.670;23.354;2023-04-05T08:06:45;94499.72;;;2.73;100.00
20622;BME280;10470;42.670;23.354;2023-04-05T08:09:11;94513.59;;;2.68;100.00
20622;BME280;10470;42.670;23.354;2023-04-05T08:11:36;94491.31;;;2.67;100.00
20622;BME280;10470;42.670;23.354;2023-04-05T08:14:02;94496.91;;;2.49;100.00
20622;BME280;10470;42.670;23.354;2023-04-05T08:16:28;94502.72;;;2.78;100.00
20622;BME280;10470;42.670;23.354;2023-04-05T08:18:53;94513.59;;;2.98;100.00
20622;BME280;10470;42.670;23.354;2023-04-05T08:21:18;94515.69;;;3.14;100.00
20622;BME280;10470;42.670;23.354;2023-04-05T08:23:44;94523.56;;;3.28;100.00
20622;BME280;10470;42.670;23.354;2023-04-05T08:26:09;94509.97;;;3.12;100.00
20622;BME280;10470;42.670;23.354;2023-04-05T08:28:35;94520.34;;;3.10;100.00
20622;BME280;10470;42.670;23.354;2023-04-05T08:31:00;94521.59;;;3.33;100.00
20622;BME280;10470;42.670;23.354;2023-04-05T08:33:26;94511.63;;;3.02;100.00
20622;BME280;10470;42.670;23.354;2023-04-05T08:35:55;94524.53;;;2.84;100.00
20622;BME280;10470;42.670;23.354;2023-04-05T08:38:21;94515.78;;;2.76;100.00
20622;BME280;10470;42.670;23.354;2023-04-05T08:40:48;94524.69;;;2.70;100.00
20622;BME280;10470;42.670;23.354;2023-04-05T08:43:17;94535.84;;;3.02;100.00
20622;BME280;10470;42.670;23.354;2023-04-05T08:45:50;94526.91;;;3.09;100.00
20622;BME280;10470;42.670;23.354;2023-04-05T08:48:18;94525.13;;;3.26;100.00
20622;BME280;10470;42.670;23.354;2023-04-05T08:50:50;94535.47;;;2.70;100.00
20622;BME280;10470;42.670;23.354;2023-04-05T08:53:17;94521.66;;;2.68;100.00
20622;BME280;10470;42.670;23.354;2023-04-05T08:55:42;94527.06;;;2.68;100.00
20622;BME280;10470;42.670;23.354;2023-04-05T08:58:12;94536.19;;;2.74;100.00
20622;BME280;10470;42.670;23.354;2023-04-05T09:00:40;94543.19;;;2.68;100.00
20622;BME280;10470;42.670;23.354;2023-04-05T09:03:07;94544.75;;;2.65;100.00
20622;BME280;10470;42.670;23.354;2023-04-05T09:05:38;94543.56;;;2.66;100.00
20622;BME280;10470;42.670;23.354;2023-04-05T09:08:05;94546.75;;;2.57;100.00
20622;BME280;10470;42.670;23.354;2023-04-05T09:10:31;94535.13;;;2.68;100.00
20622;BME280;10470;42.670;23.354;2023-04-05T09:12:56;94547.91;;;2.56;100.00
20622;BME280;10470;42.670;23.354;2023-04-05T09:15:23;94552.84;;;2.61;100.00
20622;BME280;10470;42.670;23.354;2023-04-05T09:17:51;94546.50;;;3.10;100.00
20622;BME280;10470;42.670;23.354;2023-04-05T09:20:17;94548.88;;;3.35;100.00
20622;BME280;10470;42.670;23.354;2023-04-05T09:22:46;94538.13;;;3.35;100.00
20622;BME280;10470;42.670;23.354;2023-04-05T09:27:58;94545.00;;;2.74;100.00
20622;BME280;10470;42.670;23.354;2023-04-05T09:30:24;94540.44;;;3.33;100.00
20622;BME280;10470;42.670;23.354;2023-04-05T09:32:53;94537.53;;;3.47;100.00
20622;BME280;10470;42.670;23.354;2023-04-05T09:35:27;94544.66;;;3.34;100.00
20622;BME280;10470;42.670;23.354;2023-04-05T09:38:03;94548.16;;;3.58;100.00
20622;BME280;10470;42.670;23.354;2023-04-05T09:40:45;94533.31;;;3.19;100.00
20622;BME280;10470;42.670;23.354;2023-04-05T09:43:12;94537.13;;;3.21;100.00
20622;BME280;10470;42.670;23.354;2023-04-05T09:45:39;94546.53;;;3.37;100.00
20622;BME280;10470;42.670;23.354;2023-04-05T09:48:10;94535.06;;;4.07;100.00
20622;BME280;10470;42.670;23.354;2023-04-05T09:50:37;94540.53;;;3.53;100.00
20622;BME280;10470;42.670;23.354;2023-04-05T09:53:12;94534.47;;;3.45;100.00
20622;BME280;10470;42.670;23.354;2023-04-05T09:55:43;94533.28;;;3.73;100.00
20622;BME280;10470;42.670;23.354;2023-04-05T09:58:12;94545.34;;;3.65;100.00
20622;BME280;10470;42.670;23.354;2023-04-05T10:00:47;94545.91;;;3.80;100.00
20622;BME280;10470;42.670;23.354;2023-04-05T10:03:17;94537.81;;;3.80;100.00
20622;BME280;10470;42.670;23.354;2023-04-05T10:05:43;94548.88;;;3.62;100.00
20622;BME280;10470;42.670;23.354;2023-04-05T10:08:08;94548.81;;;3.38;100.00
20622;BME280;10470;42.670;23.354;2023-04-05T10:10:36;94531.00;;;3.48;100.00
20622;BME280;10470;42.670;23.354;2023-04-05T10:13:10;94534.47;;;3.18;100.00
20622;BME280;10470;42.670;23.354;2023-04-05T10:15:36;94548.47;;;3.36;100.00
20622;BME280;10470;42.670;23.354;2023-04-05T10:18:11;94550.03;;;3.34;100.00
20622;BME280;10470;42.670;23.354;2023-04-05T10:20:42;94544.84;;;3.19;100.00
20622;BME280;10470;42.670;23.354;2023-04-05T10:23:27;94541.59;;;3.32;100.00
20622;BME280;10470;42.670;23.354;2023-04-05T10:26:23;94552.41;;;3.55;100.00
20622;BME280;10470;42.670;23.354;2023-04-05T10:29:00;94544.34;;;3.79;100.00
20622;BME280;10470;42.670;23.354;2023-04-05T10:34:14;94546.53;;;3.06;100.00
20622;BME280;10470;42.670;23.354;2023-04-05T10:37:03;94551.31;;;3.76;100.00
20622;BME280;10470;42.670;23.354;2023-04-05T10:39:39;94549.06;;;3.75;100.00
20622;BME280;10470;42.670;23.354;2023-04-05T10:42:26;94555.00;;;3.62;100.00
20622;BME280;10470;42.670;23.354;2023-04-05T10:44:54;94541.53;;;3.62;100.00
20622;BME280;10470;42.670;23.354;2023-04-05T10:47:27;94551.28;;;3.53;100.00
20622;BME280;10470;42.670;23.354;2023-04-05T10:49:56;94552.75;;;3.84;100.00
20622;BME280;10470;42.670;23.354;2023-04-05T10:52:24;94549.63;;;3.62;100.00
20622;BME280;10470;42.670;23.354;2023-04-05T10:54:52;94566.22;;;3.61;100.00
20622;BME280;10470;42.670;23.354;2023-04-05T10:57:21;94565.69;;;3.69;100.00
20622;BME280;10470;42.670;23.354;2023-04-05T10:59:48;94570.16;;;3.53;100.00
20622;BME280;10470;42.670;23.354;2023-04-05T11:02:14;94564.97;;;3.38;100.00
20622;BME280;10470;42.670;23.354;2023-04-05T11:04:40;94562.53;;;3.47;100.00
20622;BME280;10470;42.670;23.354;2023-04-05T11:07:11;94565.47;;;3.57;100.00
20622;BME280;10470;42.670;23.354;2023-04-05T11:09:38;94551.94;;;3.60;100.00
20622;BME280;10470;42.670;23.354;2023-04-05T11:12:04;94577.44;;;3.56;100.00
20622;BME280;10470;42.670;23.354;2023-04-05T11:14:36;94575.41;;;3.63;100.00
20622;BME280;10470;42.670;23.354;2023-04-05T11:17:03;94580.66;;;3.70;100.00
20622;BME280;10470;42.670;23.354;2023-04-05T11:22:10;94569.75;;;3.54;100.00
20622;BME280;10470;42.670;23.354;2023-04-05T11:24:49;94571.63;;;3.30;100.00
20622;BME280;10470;42.670;23.354;2023-04-05T11:27:31;94575.81;;;3.35;100.00
20622;BME280;10470;42.670;23.354;2023-04-05T11:30:01;94572.25;;;3.41;100.00
20622;BME280;10470;42.670;23.354;2023-04-05T11:32:38;94570.31;;;3.69;100.00
20622;BME280;10470;42.670;23.354;2023-04-05T11:35:06;94576.59;;;3.86;100.00
20622;BME280;10470;42.670;23.354;2023-04-05T11:37:55;94580.84;;;3.83;100.00
20622;BME280;10470;42.670;23.354;2023-04-05T11:40:34;94567.28;;;4.37;100.00
20622;BME280;10470;42.670;23.354;2023-04-05T11:43:10;94573.50;;;4.34;100.00
20622;BME280;10470;42.670;23.354;2023-04-05T11:45:39;94572.56;;;3.98;100.00
20622;BME280;10470;42.670;23.354;2023-04-05T11:48:12;94576.19;;;4.78;100.00
20622;BME280;10470;42.670;23.354;2023-04-05T11:50:39;94564.16;;;4.82;100.00
20622;BME280;10470;42.670;23.354;2023-04-05T11:53:16;94575.06;;;4.32;100.00
20622;BME280;10470;42.670;23.354;2023-04-05T11:55:45;94569.56;;;4.39;100.00
20622;BME280;10470;42.670;23.354;2023-04-05T11:58:21;94583.34;;;4.21;100.00
20622;BME280;10470;42.670;23.354;2023-04-05T12:01:05;94564.47;;;4.45;100.00
20622;BME280;10470;42.670;23.354;2023-04-05T12:03:32;94572.59;;;3.94;100.00
20622;BME280;10470;42.670;23.354;2023-04-05T12:05:59;94570.03;;;4.34;100.00
20622;BME280;10470;42.670;23.354;2023-04-05T12:08:42;94568.97;;;4.28;100.00
20622;BME280;10470;42.670;23.354;2023-04-05T12:11:14;94589.25;;;4.59;100.00
20622;BME280;10470;42.670;23.354;2023-04-05T12:13:40;94569.44;;;4.23;100.00
20622;BME280;10470;42.670;23.354;2023-04-05T12:16:06;94575.63;;;4.00;100.00
20622;BME280;10470;42.670;23.354;2023-04-05T12:18:35;94572.31;;;4.35;100.00
20622;BME280;10470;42.670;23.354;2023-04-05T12:21:02;94569.88;;;4.65;100.00
20622;BME280;10470;42.670;23.354;2023-04-05T12:23:28;94562.69;;;4.78;100.00
20622;BME280;10470;42.670;23.354;2023-04-05T12:25:56;94577.41;;;5.33;100.00
20622;BME280;10470;42.670;23.354;2023-04-05T12:28:22;94555.63;;;5.04;100.00
20622;BME280;10470;42.670;23.354;2023-04-05T12:33:30;94565.31;;;5.58;100.00
20622;BME280;10470;42.670;23.354;2023-04-05T12:36:14;94579.34;;;5.33;100.00
20622;BME280;10470;42.670;23.354;2023-04-05T12:38:40;94565.06;;;6.34;100.00
20622;BME280;10470;42.670;23.354;2023-04-05T12:41:05;94571.28;;;5.29;100.00
20622;BME280;10470;42.670;23.354;2023-04-05T12:43:38;94567.59;;;5.92;100.00
20622;BME280;10470;42.670;23.354;2023-04-05T12:46:40;94560.41;;;5.85;100.00
20622;BME280;10470;42.670;23.354;2023-04-05T12:49:09;94570.63;;;5.25;100.00
20622;BME280;10470;42.670;23.354;2023-04-05T12:51:37;94567.00;;;5.84;100.00
20622;BME280;10470;42.670;23.354;2023-04-05T12:54:06;94570.19;;;5.26;100.00
20622;BME280;10470;42.670;23.354;2023-04-05T12:56:31;94564.41;;;4.88;100.00
20622;BME280;10470;42.670;23.354;2023-04-05T12:58:57;94567.03;;;4.72;100.00
20622;BME280;10470;42.670;23.354;2023-04-05T13:01:23;94568.44;;;4.80;100.00
20622;BME280;10470;42.670;23.354;2023-04-05T13:03:48;94574.50;;;4.64;100.00
20622;BME280;10470;42.670;23.354;2023-04-05T13:06:15;94587.34;;;4.36;100.00
20622;BME280;10470;42.670;23.354;2023-04-05T13:08:41;94576.88;;;4.15;100.00
20622;BME280;10470;42.670;23.354;2023-04-05T13:11:06;94571.94;;;3.86;100.00
20622;BME280;10470;42.670;23.354;2023-04-05T13:13:32;94572.75;;;4.10;100.00
20622;BME280;10470;42.670;23.354;2023-04-05T13:15:58;94577.09;;;4.48;100.00
20622;BME280;10470;42.670;23.354;2023-04-05T13:18:24;94573.72;;;3.97;100.00